Time,TemperatureF,DewpointF,PressureIn,WindDirection,WindDirectionDegrees,WindSpeedMPH,WindSpeedGustMPH,Humidity,HourlyPrecipIn,Conditions,Clouds,dailyrainin,SolarRadiationWatts/m^2,SoftwareType,DateUTC
2013-12-04 00:00:00,25.0,18.0,-100.00,ENE,62,18.0,33.0,75,0.00,,,0.00,0.000000,,2013-12-04 05:00:00,
2013-12-04 00:42:00,25.0,18.0,-100.00,ENE,62,18.0,33.0,75,0.00,,,0.00,0.000000,,2013-12-04 05:42:00,
2013-12-04 00:53:00,25.0,18.0,-100.00,ENE,62,18.0,33.0,75,0.00,,,0.00,0.000000,,2013-12-04 05:53:00,
2013-12-04 01:00:00,25.0,20.0,-100.00,ENE,66,17.0,28.0,80,0.00,,,0.00,0.000000,,2013-12-04 06:00:00,
2013-12-04 01:42:00,25.0,20.0,-100.00,ENE,66,17.0,28.0,80,0.00,,,0.00,0.000000,,2013-12-04 06:42:00,
2013-12-04 01:52:00,25.0,20.0,-100.00,ENE,66,17.0,28.0,80,0.00,,,0.00,0.000000,,2013-12-04 06:52:00,
2013-12-04 02:00:00,25.0,20.0,-100.00,ENE,62,15.0,28.0,80,0.00,,,0.00,0.000000,,2013-12-04 07:00:00,
2013-12-04 02:42:00,25.0,20.0,-100.00,ENE,62,15.0,28.0,80,0.00,,,0.00,0.000000,,2013-12-04 07:42:00,
2013-12-04 02:52:00,25.0,20.0,-100.00,ENE,62,15.0,28.0,80,0.00,,,0.00,0.000000,,2013-12-04 07:52:00,
2013-12-04 03:00:00,24.0,20.0,-100.00,ENE,66,15.0,29.0,83,0.00,,,0.00,0.000000,,2013-12-04 08:00:00,
2013-12-04 03:42:00,24.0,20.0,-100.00,ENE,66,15.0,29.0,83,0.00,,,0.00,0.000000,,2013-12-04 08:42:00,
2013-12-04 03:52:00,24.0,20.0,-100.00,ENE,66,15.0,29.0,83,0.00,,,0.00,0.000000,,2013-12-04 08:52:00,
2013-12-04 04:00:00,24.0,21.0,-100.00,ENE,66,15.0,29.0,89,0.00,,,0.00,0.000000,,2013-12-04 09:00:00,
2013-12-04 04:43:00,24.0,21.0,-100.00,ENE,66,15.0,29.0,89,0.00,,,0.00,0.000000,,2013-12-04 09:43:00,
2013-12-04 04:53:00,24.0,21.0,-100.00,ENE,66,15.0,29.0,89,0.00,,,0.00,0.000000,,2013-12-04 09:53:00,
2013-12-04 05:00:00,24.0,20.0,-100.00,ENE,67,14.0,25.0,85,0.00,,,0.00,0.000000,,2013-12-04 10:00:00,
2013-12-04 05:23:00,24.0,20.0,-100.00,ENE,67,14.0,25.0,85,0.00,,,0.00,0.000000,,2013-12-04 10:23:00,
2013-12-04 05:34:00,24.0,20.0,-100.00,ENE,67,14.0,25.0,85,0.00,,,0.00,0.000000,,2013-12-04 10:34:00,
2013-12-04 05:43:00,24.0,20.0,-100.00,ENE,67,14.0,25.0,85,0.00,,,0.00,0.000000,,2013-12-04 10:43:00,
2013-12-04 05:53:00,24.0,20.0,-100.00,ENE,67,14.0,25.0,85,0.00,,,0.00,0.000000,,2013-12-04 10:53:00,
2013-12-04 06:00:00,24.0,18.0,-100.00,ENE,66,14.0,23.0,79,0.00,,,0.00,0.000000,,2013-12-04 11:00:00,
2013-12-04 06:42:00,24.0,18.0,-100.00,ENE,66,14.0,23.0,79,0.00,,,0.00,0.000000,,2013-12-04 11:42:00,
2013-12-04 06:53:00,24.0,18.0,-100.00,ENE,66,14.0,23.0,79,0.00,,,0.00,0.000000,,2013-12-04 11:53:00,
2013-12-04 07:00:00,23.0,18.0,-100.00,ENE,72,14.0,24.0,81,0.00,,,0.00,0.000000,,2013-12-04 12:00:00,
2013-12-04 07:42:00,23.0,18.0,-100.00,ENE,72,14.0,24.0,81,0.00,,,0.00,0.000000,,2013-12-04 12:42:00,
2013-12-04 07:52:00,23.0,18.0,-100.00,ENE,72,14.0,24.0,81,0.00,,,0.00,0.000000,,2013-12-04 12:52:00,
2013-12-04 08:00:00,23.0,19.0,-100.00,ENE,67,15.0,27.0,83,0.00,,,0.00,0.000000,,2013-12-04 13:00:00,
2013-12-04 08:42:00,23.0,19.0,-100.00,ENE,67,15.0,27.0,83,0.00,,,0.00,0.000000,,2013-12-04 13:42:00,
2013-12-04 08:52:00,23.0,19.0,-100.00,ENE,67,15.0,27.0,83,0.00,,,0.00,0.000000,,2013-12-04 13:52:00,
2013-12-04 09:00:00,23.0,19.0,-100.00,ENE,60,17.0,28.0,85,0.00,,,0.00,0.000000,,2013-12-04 14:00:00,
2013-12-04 09:42:00,23.0,19.0,-100.00,ENE,60,17.0,28.0,85,0.00,,,0.00,0.000000,,2013-12-04 14:42:00,
2013-12-04 09:52:00,23.0,19.0,-100.00,ENE,60,17.0,28.0,85,0.00,,,0.00,0.000000,,2013-12-04 14:52:00,
2013-12-04 10:00:00,23.0,15.0,-100.00,ENE,64,17.0,32.0,70,0.00,,,-99.99,0.000000,,2013-12-04 15:00:00,
2013-12-04 10:22:00,23.0,15.0,-100.00,ENE,64,17.0,32.0,70,0.00,,,-99.99,0.000000,,2013-12-04 15:22:00,
2013-12-04 10:33:00,23.0,15.0,-100.00,ENE,64,17.0,32.0,70,0.00,,,-99.99,0.000000,,2013-12-04 15:33:00,
2013-12-04 10:44:00,23.0,15.0,-100.00,ENE,64,17.0,32.0,70,0.00,,,-99.99,0.000000,,2013-12-04 15:44:00,
2013-12-04 10:53:00,23.0,15.0,-100.00,ENE,64,17.0,32.0,70,0.00,,,-99.99,0.000000,,2013-12-04 15:53:00,
2013-12-04 11:00:00,22.0,15.0,-100.00,ENE,68,17.0,34.0,74,0.00,,,0.00,1.000000,,2013-12-04 16:00:00,
2013-12-04 11:43:00,22.0,15.0,-100.00,ENE,68,17.0,34.0,74,0.00,,,0.00,1.000000,,2013-12-04 16:43:00,
2013-12-04 11:53:00,22.0,15.0,-100.00,ENE,68,17.0,34.0,74,0.00,,,0.00,1.000000,,2013-12-04 16:53:00,
2013-12-04 12:00:00,24.0,18.0,-100.00,ENE,65,14.0,26.0,76,0.00,,,0.00,29.000000,,2013-12-04 17:00:00,
2013-12-04 12:43:00,24.0,18.0,-100.00,ENE,65,14.0,26.0,76,0.00,,,0.00,29.000000,,2013-12-04 17:43:00,
2013-12-04 12:52:00,24.0,18.0,-100.00,ENE,65,14.0,26.0,76,0.00,,,0.00,29.000000,,2013-12-04 17:52:00,
2013-12-04 13:00:00,25.0,17.0,-100.00,ENE,69,15.0,25.0,72,0.00,,,0.00,106.000000,,2013-12-04 18:00:00,
2013-12-04 13:22:00,25.0,17.0,-100.00,ENE,69,15.0,25.0,72,0.00,,,0.00,106.000000,,2013-12-04 18:22:00,
2013-12-04 13:33:00,25.0,17.0,-100.00,ENE,69,15.0,25.0,72,0.00,,,0.00,106.000000,,2013-12-04 18:33:00,
2013-12-04 13:42:00,25.0,17.0,-100.00,ENE,69,15.0,25.0,72,0.00,,,0.00,106.000000,,2013-12-04 18:42:00,
2013-12-04 13:52:00,25.0,17.0,-100.00,ENE,69,15.0,25.0,72,0.00,,,0.00,106.000000,,2013-12-04 18:52:00,
2013-12-04 14:00:00,28.0,19.0,-100.00,ENE,72,13.0,26.0,68,0.00,,,0.00,224.000000,,2013-12-04 19:00:00,
2013-12-04 14:22:00,28.0,19.0,-100.00,ENE,72,13.0,26.0,68,0.00,,,0.00,224.000000,,2013-12-04 19:22:00,
2013-12-04 14:32:00,28.0,19.0,-100.00,ENE,72,13.0,26.0,68,0.00,,,0.00,224.000000,,2013-12-04 19:32:00,
2013-12-04 14:42:00,28.0,19.0,-100.00,ENE,72,13.0,26.0,68,0.00,,,0.00,224.000000,,2013-12-04 19:42:00,
2013-12-04 14:52:00,28.0,19.0,-100.00,ENE,72,13.0,26.0,68,0.00,,,0.00,224.000000,,2013-12-04 19:52:00,
2013-12-04 15:00:00,29.0,20.0,-100.00,ENE,68,11.0,22.0,68,0.00,,,0.00,388.000000,,2013-12-04 20:00:00,
2013-12-04 15:22:00,29.0,20.0,-100.00,ENE,68,11.0,22.0,68,0.00,,,0.00,388.000000,,2013-12-04 20:22:00,
2013-12-04 15:32:00,29.0,20.0,-100.00,ENE,68,11.0,22.0,68,0.00,,,0.00,388.000000,,2013-12-04 20:32:00,
2013-12-04 15:42:00,29.0,20.0,-100.00,ENE,68,11.0,22.0,68,0.00,,,0.00,388.000000,,2013-12-04 20:42:00,
2013-12-04 15:52:00,29.0,20.0,-100.00,ENE,68,11.0,22.0,68,0.00,,,0.00,388.000000,,2013-12-04 20:52:00,
2013-12-04 16:00:00,29.0,18.0,-100.00,ENE,61,10.0,21.0,64,0.00,,,0.00,315.000000,,2013-12-04 21:00:00,
2013-12-04 16:22:00,29.0,18.0,-100.00,ENE,61,10.0,21.0,64,0.00,,,0.00,315.000000,,2013-12-04 21:22:00,
2013-12-04 16:33:00,29.0,18.0,-100.00,ENE,61,10.0,21.0,64,0.00,,,0.00,315.000000,,2013-12-04 21:33:00,
2013-12-04 16:44:00,29.0,18.0,-100.00,ENE,61,10.0,21.0,64,0.00,,,0.00,315.000000,,2013-12-04 21:44:00,
2013-12-04 16:54:00,29.0,18.0,-100.00,ENE,61,10.0,21.0,64,0.00,,,0.00,315.000000,,2013-12-04 21:54:00,
2013-12-04 17:00:00,28.0,16.0,-100.00,ENE,66,12.0,20.0,61,0.00,,,0.00,365.000000,,2013-12-04 22:00:00,
2013-12-04 17:23:00,28.0,16.0,-100.00,ENE,66,12.0,20.0,61,0.00,,,0.00,365.000000,,2013-12-04 22:23:00,
2013-12-04 17:33:00,28.0,16.0,-100.00,ENE,66,12.0,20.0,61,0.00,,,0.00,365.000000,,2013-12-04 22:33:00,
2013-12-04 17:43:00,28.0,16.0,-100.00,ENE,66,12.0,20.0,61,0.00,,,0.00,365.000000,,2013-12-04 22:43:00,
2013-12-04 17:53:00,28.0,16.0,-100.00,ENE,66,12.0,20.0,61,0.00,,,0.00,365.000000,,2013-12-04 22:53:00,
2013-12-04 18:00:00,27.0,15.0,-100.00,ENE,65,11.0,20.0,60,0.00,,,0.00,269.000000,,2013-12-04 23:00:00,
2013-12-04 18:22:00,27.0,15.0,-100.00,ENE,65,11.0,20.0,60,0.00,,,0.00,269.000000,,2013-12-04 23:22:00,
2013-12-04 18:33:00,27.0,15.0,-100.00,ENE,65,11.0,20.0,60,0.00,,,0.00,269.000000,,2013-12-04 23:33:00,
2013-12-04 18:42:00,27.0,15.0,-100.00,ENE,65,11.0,20.0,60,0.00,,,0.00,269.000000,,2013-12-04 23:42:00,
2013-12-04 18:53:00,27.0,15.0,-100.00,ENE,65,11.0,20.0,60,0.00,,,0.00,269.000000,,2013-12-04 23:53:00,
2013-12-04 19:00:00,25.0,15.0,-100.00,ENE,65,13.0,20.0,65,0.00,,,0.00,124.000000,,2013-12-05 00:00:00,
2013-12-04 19:22:00,25.0,15.0,-100.00,ENE,65,13.0,20.0,65,0.00,,,0.00,124.000000,,2013-12-05 00:22:00,
2013-12-04 19:32:00,25.0,15.0,-100.00,ENE,65,13.0,20.0,65,0.00,,,0.00,124.000000,,2013-12-05 00:32:00,
2013-12-04 19:42:00,25.0,15.0,-100.00,ENE,65,13.0,20.0,65,0.00,,,0.00,124.000000,,2013-12-05 00:42:00,
2013-12-04 19:52:00,25.0,15.0,-100.00,ENE,65,13.0,20.0,65,0.00,,,0.00,124.000000,,2013-12-05 00:52:00,
2013-12-04 20:00:00,23.0,14.0,-100.00,ENE,69,14.0,21.0,69,0.00,,,0.00,8.000000,,2013-12-05 01:00:00,
2013-12-04 20:42:00,23.0,14.0,-100.00,ENE,69,14.0,21.0,69,0.00,,,0.00,8.000000,,2013-12-05 01:42:00,
2013-12-04 20:52:00,23.0,14.0,-100.00,ENE,69,14.0,21.0,69,0.00,,,0.00,8.000000,,2013-12-05 01:52:00,
2013-12-04 21:00:00,23.0,14.0,-100.00,ENE,69,12.0,21.0,67,0.00,,,0.00,0.000000,,2013-12-05 02:00:00,
2013-12-04 21:52:00,23.0,14.0,-100.00,ENE,69,12.0,21.0,67,0.00,,,0.00,0.000000,,2013-12-05 02:52:00,
2013-12-04 22:00:00,23.0,12.0,-100.00,ENE,65,11.0,22.0,61,0.00,,,0.00,0.000000,,2013-12-05 03:00:00,
2013-12-04 22:43:00,23.0,12.0,-100.00,ENE,65,11.0,22.0,61,0.00,,,0.00,0.000000,,2013-12-05 03:43:00,
2013-12-04 22:54:00,23.0,12.0,-100.00,ENE,65,11.0,22.0,61,0.00,,,0.00,0.000000,,2013-12-05 03:54:00,
2013-12-04 23:00:00,23.0,11.0,-100.00,ENE,64,11.0,18.0,59,0.00,,,-99.99,0.000000,,2013-12-05 04:00:00,
2013-12-04 23:43:00,23.0,11.0,-100.00,ENE,64,11.0,18.0,59,0.00,,,-99.99,0.000000,,2013-12-05 04:43:00,
2013-12-04 23:53:00,23.0,11.0,-100.00,ENE,64,11.0,18.0,59,0.00,,,-99.99,0.000000,,2013-12-05 04:53:00,